Terminal Aerodrome Forecast
Issued by NWS Blacksburg, VA

Home | Current Version | Previous Version | Text Only | Print | Product List | Glossary On
Versions: 1 2 3 4 5 6 7 8 9 10 11 12 13 14 15 16 17 18 19 20 21 22
000
FTUS41 KRNK 290738 AAA
TAFLYH
TAF AMD
KLYH 290738Z 2908/3006 20004KT 1 1/2SM BR OVC002
     FM291000 VRB03KT 3SM BR OVC012
     FM291200 30004KT P6SM BKN050
     FM292000 27005KT P6SM SCT050=

USA.gov is the U.S. government's official web portal to all federal, state and local government web resources and services.